sensor_id;sensor_type;location;lat;lon;timestamp;P1;durP1;ratioP1;P2;durP2;ratioP2
39370;SDS011;25099;51.946;4.838;2024-03-23T00:54:09;16.30;;;5.35;;
39370;SDS011;25099;51.946;4.838;2024-03-23T00:56:35;17.05;;;4.38;;
39370;SDS011;25099;51.946;4.838;2024-03-23T00:59:00;18.35;;;5.35;;
39370;SDS011;25099;51.946;4.838;2024-03-23T01:01:26;17.42;;;4.70;;
39370;SDS011;25099;51.946;4.838;2024-03-23T01:03:51;22.02;;;4.82;;
39370;SDS011;25099;51.946;4.838;2024-03-23T01:06:17;21.60;;;4.32;;
39370;SDS011;25099;51.946;4.838;2024-03-23T01:08:42;12.32;;;3.88;;
39370;SDS011;25099;51.946;4.838;2024-03-23T01:11:08;17.38;;;4.18;;
39370;SDS011;25099;51.946;4.838;2024-03-23T01:13:33;18.85;;;4.15;;
39370;SDS011;25099;51.946;4.838;2024-03-23T01:15:59;19.17;;;5.10;;
39370;SDS011;25099;51.946;4.838;2024-03-23T01:18:24;15.50;;;4.13;;
39370;SDS011;25099;51.946;4.838;2024-03-23T01:20:51;15.95;;;4.00;;
39370;SDS011;25099;51.946;4.838;2024-03-23T01:23:17;12.00;;;3.58;;
39370;SDS011;25099;51.946;4.838;2024-03-23T01:25:42;13.73;;;3.67;;
39370;SDS011;25099;51.946;4.838;2024-03-23T01:28:08;14.40;;;3.15;;
39370;SDS011;25099;51.946;4.838;2024-03-23T01:30:34;9.75;;;3.00;;
39370;SDS011;25099;51.946;4.838;2024-03-23T01:33:00;20.75;;;4.38;;
39370;SDS011;25099;51.946;4.838;2024-03-23T01:35:27;13.73;;;3.80;;
39370;SDS011;25099;51.946;4.838;2024-03-23T01:37:53;11.30;;;3.00;;
39370;SDS011;25099;51.946;4.838;2024-03-23T01:40:18;16.23;;;3.50;;
39370;SDS011;25099;51.946;4.838;2024-03-23T01:42:57;13.40;;;2.90;;
39370;SDS011;25099;51.946;4.838;2024-03-23T01:45:24;15.43;;;3.88;;
39370;SDS011;25099;51.946;4.838;2024-03-23T01:47:50;12.75;;;3.45;;
39370;SDS011;25099;51.946;4.838;2024-03-23T01:50:17;12.68;;;3.10;;
39370;SDS011;25099;51.946;4.838;2024-03-23T01:52:42;12.80;;;3.45;;
39370;SDS011;25099;51.946;4.838;2024-03-23T01:55:09;9.95;;;3.60;;
39370;SDS011;25099;51.946;4.838;2024-03-23T01:57:34;13.65;;;4.35;;
39370;SDS011;25099;51.946;4.838;2024-03-23T02:00:00;13.23;;;3.88;;
39370;SDS011;25099;51.946;4.838;2024-03-23T02:02:26;14.65;;;3.63;;
39370;SDS011;25099;51.946;4.838;2024-03-23T02:04:51;13.88;;;4.07;;
39370;SDS011;25099;51.946;4.838;2024-03-23T02:07:17;12.43;;;3.25;;
39370;SDS011;25099;51.946;4.838;2024-03-23T02:09:43;15.23;;;3.70;;
39370;SDS011;25099;51.946;4.838;2024-03-23T02:12:09;10.50;;;3.10;;
39370;SDS011;25099;51.946;4.838;2024-03-23T02:14:35;19.92;;;4.47;;
39370;SDS011;25099;51.946;4.838;2024-03-23T02:17:00;15.57;;;3.40;;
39370;SDS011;25099;51.946;4.838;2024-03-23T02:19:26;14.82;;;3.63;;
39370;SDS011;25099;51.946;4.838;2024-03-23T02:21:51;20.85;;;3.58;;
39370;SDS011;25099;51.946;4.838;2024-03-23T02:24:17;11.50;;;2.80;;
39370;SDS011;25099;51.946;4.838;2024-03-23T02:26:42;13.40;;;3.58;;
39370;SDS011;25099;51.946;4.838;2024-03-23T02:29:08;15.60;;;4.22;;
39370;SDS011;25099;51.946;4.838;2024-03-23T02:31:34;15.90;;;4.10;;
39370;SDS011;25099;51.946;4.838;2024-03-23T02:34:00;10.95;;;3.15;;
39370;SDS011;25099;51.946;4.838;2024-03-23T02:36:26;15.52;;;3.90;;
39370;SDS011;25099;51.946;4.838;2024-03-23T02:38:51;13.52;;;3.50;;
39370;SDS011;25099;51.946;4.838;2024-03-23T02:41:17;20.98;;;4.05;;
39370;SDS011;25099;51.946;4.838;2024-03-23T02:43:48;11.75;;;4.65;;
39370;SDS011;25099;51.946;4.838;2024-03-23T02:46:16;11.20;;;3.00;;
39370;SDS011;25099;51.946;4.838;2024-03-23T02:48:42;15.30;;;3.20;;
39370;SDS011;25099;51.946;4.838;2024-03-23T02:51:08;10.18;;;3.97;;
39370;SDS011;25099;51.946;4.838;2024-03-23T02:53:34;15.25;;;3.67;;
39370;SDS011;25099;51.946;4.838;2024-03-23T02:55:59;18.75;;;3.63;;
39370;SDS011;25099;51.946;4.838;2024-03-23T02:58:25;19.42;;;4.05;;
39370;SDS011;25099;51.946;4.838;2024-03-23T03:00:50;12.48;;;3.63;;
39370;SDS011;25099;51.946;4.838;2024-03-23T03:03:16;20.30;;;3.67;;
39370;SDS011;25099;51.946;4.838;2024-03-23T03:05:42;12.82;;;3.45;;
39370;SDS011;25099;51.946;4.838;2024-03-23T03:08:08;17.60;;;3.55;;
39370;SDS011;25099;51.946;4.838;2024-03-23T03:10:33;12.57;;;2.75;;
39370;SDS011;25099;51.946;4.838;2024-03-23T03:13:01;14.68;;;3.33;;
39370;SDS011;25099;51.946;4.838;2024-03-23T03:15:27;10.13;;;3.25;;
39370;SDS011;25099;51.946;4.838;2024-03-23T03:17:52;20.42;;;3.72;;
39370;SDS011;25099;51.946;4.838;2024-03-23T03:20:18;16.77;;;3.53;;
39370;SDS011;25099;51.946;4.838;2024-03-23T03:22:44;15.90;;;3.58;;
39370;SDS011;25099;51.946;4.838;2024-03-23T03:25:09;19.63;;;3.80;;
39370;SDS011;25099;51.946;4.838;2024-03-23T03:27:35;15.30;;;3.10;;
39370;SDS011;25099;51.946;4.838;2024-03-23T03:30:01;13.63;;;2.75;;
39370;SDS011;25099;51.946;4.838;2024-03-23T03:32:28;13.00;;;2.70;;
39370;SDS011;25099;51.946;4.838;2024-03-23T03:34:54;14.05;;;3.25;;
39370;SDS011;25099;51.946;4.838;2024-03-23T03:37:19;14.40;;;2.50;;
39370;SDS011;25099;51.946;4.838;2024-03-23T03:39:45;16.45;;;2.65;;
39370;SDS011;25099;51.946;4.838;2024-03-23T03:42:11;10.63;;;2.53;;
39370;SDS011;25099;51.946;4.838;2024-03-23T03:44:36;21.30;;;3.00;;
39370;SDS011;25099;51.946;4.838;2024-03-23T03:47:02;16.38;;;2.75;;
39370;SDS011;25099;51.946;4.838;2024-03-23T03:49:27;18.73;;;3.00;;
39370;SDS011;25099;51.946;4.838;2024-03-23T03:51:53;22.20;;;2.38;;
39370;SDS011;25099;51.946;4.838;2024-03-23T03:54:18;16.90;;;2.67;;
39370;SDS011;25099;51.946;4.838;2024-03-23T03:56:44;17.65;;;2.78;;
39370;SDS011;25099;51.946;4.838;2024-03-23T03:59:10;15.50;;;2.47;;
39370;SDS011;25099;51.946;4.838;2024-03-23T04:01:35;12.25;;;2.80;;
39370;SDS011;25099;51.946;4.838;2024-03-23T04:04:01;19.30;;;2.75;;
39370;SDS011;25099;51.946;4.838;2024-03-23T04:06:26;24.13;;;3.15;;
39370;SDS011;25099;51.946;4.838;2024-03-23T04:08:52;16.20;;;4.07;;
39370;SDS011;25099;51.946;4.838;2024-03-23T04:11:17;15.18;;;3.55;;
39370;SDS011;25099;51.946;4.838;2024-03-23T04:13:43;12.73;;;2.83;;
39370;SDS011;25099;51.946;4.838;2024-03-23T04:16:08;8.45;;;1.75;;
39370;SDS011;25099;51.946;4.838;2024-03-23T04:18:34;9.13;;;3.05;;
39370;SDS011;25099;51.946;4.838;2024-03-23T04:21:00;19.13;;;3.15;;
39370;SDS011;25099;51.946;4.838;2024-03-23T04:23:26;10.82;;;2.55;;
39370;SDS011;25099;51.946;4.838;2024-03-23T04:25:51;5.90;;;1.70;;
39370;SDS011;25099;51.946;4.838;2024-03-23T04:28:18;22.73;;;2.83;;
39370;SDS011;25099;51.946;4.838;2024-03-23T04:30:44;18.65;;;3.05;;
39370;SDS011;25099;51.946;4.838;2024-03-23T04:33:09;12.73;;;3.25;;
39370;SDS011;25099;51.946;4.838;2024-03-23T04:35:35;10.98;;;2.38;;
39370;SDS011;25099;51.946;4.838;2024-03-23T04:38:01;18.15;;;3.05;;
39370;SDS011;25099;51.946;4.838;2024-03-23T04:40:26;8.27;;;1.63;;
39370;SDS011;25099;51.946;4.838;2024-03-23T04:42:52;16.75;;;1.95;;
39370;SDS011;25099;51.946;4.838;2024-03-23T04:45:17;7.70;;;2.38;;
39370;SDS011;25099;51.946;4.838;2024-03-23T04:47:43;16.15;;;2.50;;
39370;SDS011;25099;51.946;4.838;2024-03-23T04:50:10;16.63;;;3.10;;
39370;SDS011;25099;51.946;4.838;2024-03-23T04:52:35;14.20;;;2.33;;
39370;SDS011;25099;51.946;4.838;2024-03-23T04:55:01;12.88;;;2.08;;
39370;SDS011;25099;51.946;4.838;2024-03-23T04:57:27;8.82;;;2.20;;
39370;SDS011;25099;51.946;4.838;2024-03-23T04:59:52;12.73;;;2.20;;
39370;SDS011;25099;51.946;4.838;2024-03-23T05:02:18;8.65;;;1.50;;
39370;SDS011;25099;51.946;4.838;2024-03-23T05:04:43;6.93;;;1.70;;
39370;SDS011;25099;51.946;4.838;2024-03-23T05:07:09;12.00;;;2.25;;
39370;SDS011;25099;51.946;4.838;2024-03-23T05:09:34;18.52;;;2.60;;
39370;SDS011;25099;51.946;4.838;2024-03-23T05:12:00;15.32;;;2.67;;
39370;SDS011;25099;51.946;4.838;2024-03-23T05:14:26;13.73;;;2.42;;
39370;SDS011;25099;51.946;4.838;2024-03-23T05:16:51;15.07;;;2.47;;
39370;SDS011;25099;51.946;4.838;2024-03-23T05:19:21;10.77;;;2.20;;
39370;SDS011;25099;51.946;4.838;2024-03-23T05:21:47;10.77;;;2.33;;
39370;SDS011;25099;51.946;4.838;2024-03-23T05:24:12;11.05;;;2.45;;
39370;SDS011;25099;51.946;4.838;2024-03-23T05:26:38;18.63;;;2.35;;
39370;SDS011;25099;51.946;4.838;2024-03-23T05:29:03;15.23;;;2.83;;
39370;SDS011;25099;51.946;4.838;2024-03-23T05:31:31;14.05;;;2.42;;
39370;SDS011;25099;51.946;4.838;2024-03-23T05:33:57;16.73;;;3.00;;
39370;SDS011;25099;51.946;4.838;2024-03-23T05:36:23;10.13;;;2.30;;
39370;SDS011;25099;51.946;4.838;2024-03-23T05:38:51;16.30;;;2.55;;
39370;SDS011;25099;51.946;4.838;2024-03-23T05:41:16;14.45;;;3.00;;
39370;SDS011;25099;51.946;4.838;2024-03-23T05:43:42;21.63;;;3.50;;
39370;SDS011;25099;51.946;4.838;2024-03-23T05:46:07;13.55;;;3.22;;
39370;SDS011;25099;51.946;4.838;2024-03-23T05:48:33;15.75;;;3.15;;
39370;SDS011;25099;51.946;4.838;2024-03-23T05:50:59;13.65;;;2.83;;
39370;SDS011;25099;51.946;4.838;2024-03-23T05:53:25;13.75;;;2.50;;
39370;SDS011;25099;51.946;4.838;2024-03-23T05:55:51;10.70;;;2.67;;
39370;SDS011;25099;51.946;4.838;2024-03-23T05:58:18;13.48;;;2.58;;
39370;SDS011;25099;51.946;4.838;2024-03-23T06:00:45;12.82;;;2.72;;
39370;SDS011;25099;51.946;4.838;2024-03-23T06:03:11;12.25;;;2.60;;
39370;SDS011;25099;51.946;4.838;2024-03-23T06:05:37;16.15;;;3.35;;
39370;SDS011;25099;51.946;4.838;2024-03-23T06:08:03;12.32;;;2.63;;
39370;SDS011;25099;51.946;4.838;2024-03-23T06:10:29;12.30;;;2.63;;
39370;SDS011;25099;51.946;4.838;2024-03-23T06:12:55;12.02;;;2.92;;
39370;SDS011;25099;51.946;4.838;2024-03-23T06:15:20;9.00;;;2.63;;
39370;SDS011;25099;51.946;4.838;2024-03-23T06:17:47;13.15;;;3.10;;
39370;SDS011;25099;51.946;4.838;2024-03-23T06:20:13;16.83;;;2.92;;
39370;SDS011;25099;51.946;4.838;2024-03-23T06:22:39;11.50;;;3.10;;
39370;SDS011;25099;51.946;4.838;2024-03-23T06:25:05;13.93;;;2.78;;
39370;SDS011;25099;51.946;4.838;2024-03-23T06:27:31;14.43;;;3.05;;
39370;SDS011;25099;51.946;4.838;2024-03-23T06:29:58;10.68;;;3.00;;
39370;SDS011;25099;51.946;4.838;2024-03-23T06:32:24;12.75;;;2.78;;
39370;SDS011;25099;51.946;4.838;2024-03-23T06:34:49;15.15;;;2.92;;
39370;SDS011;25099;51.946;4.838;2024-03-23T06:37:15;22.98;;;3.33;;
39370;SDS011;25099;51.946;4.838;2024-03-23T06:39:41;11.10;;;2.78;;
39370;SDS011;25099;51.946;4.838;2024-03-23T06:42:06;18.45;;;2.80;;
39370;SDS011;25099;51.946;4.838;2024-03-23T06:44:33;13.60;;;3.20;;
39370;SDS011;25099;51.946;4.838;2024-03-23T06:46:58;22.73;;;3.42;;
39370;SDS011;25099;51.946;4.838;2024-03-23T06:49:24;22.08;;;2.97;;
39370;SDS011;25099;51.946;4.838;2024-03-23T06:51:50;10.38;;;2.63;;
39370;SDS011;25099;51.946;4.838;2024-03-23T06:54:19;15.95;;;3.33;;
39370;SDS011;25099;51.946;4.838;2024-03-23T06:56:44;10.40;;;2.88;;
39370;SDS011;25099;51.946;4.838;2024-03-23T06:59:10;12.35;;;3.22;;
39370;SDS011;25099;51.946;4.838;2024-03-23T07:01:36;26.65;;;3.85;;
39370;SDS011;25099;51.946;4.838;2024-03-23T07:04:01;15.65;;;2.58;;
39370;SDS011;25099;51.946;4.838;2024-03-23T07:06:28;23.00;;;3.10;;
39370;SDS011;25099;51.946;4.838;2024-03-23T07:08:54;10.88;;;2.60;;
39370;SDS011;25099;51.946;4.838;2024-03-23T07:11:23;17.23;;;2.97;;
39370;SDS011;25099;51.946;4.838;2024-03-23T07:13:50;11.43;;;2.83;;
39370;SDS011;25099;51.946;4.838;2024-03-23T07:16:16;11.23;;;3.10;;
39370;SDS011;25099;51.946;4.838;2024-03-23T07:18:41;19.15;;;2.63;;
39370;SDS011;25099;51.946;4.838;2024-03-23T07:21:07;8.38;;;2.97;;
39370;SDS011;25099;51.946;4.838;2024-03-23T07:23:33;11.80;;;2.05;;
39370;SDS011;25099;51.946;4.838;2024-03-23T07:26:02;18.33;;;3.28;;
39370;SDS011;25099;51.946;4.838;2024-03-23T07:28:30;15.55;;;2.95;;
39370;SDS011;25099;51.946;4.838;2024-03-23T07:31:12;13.13;;;2.73;;
39370;SDS011;25099;51.946;4.838;2024-03-23T07:33:46;17.95;;;2.88;;
39370;SDS011;25099;51.946;4.838;2024-03-23T07:36:13;9.65;;;2.35;;
39370;SDS011;25099;51.946;4.838;2024-03-23T07:38:42;13.07;;;2.83;;
39370;SDS011;25099;51.946;4.838;2024-03-23T07:41:10;15.98;;;3.45;;
39370;SDS011;25099;51.946;4.838;2024-03-23T07:43:39;10.98;;;2.35;;
39370;SDS011;25099;51.946;4.838;2024-03-23T07:46:05;14.20;;;2.30;;
39370;SDS011;25099;51.946;4.838;2024-03-23T07:48:31;27.10;;;2.95;;
39370;SDS011;25099;51.946;4.838;2024-03-23T07:51:01;11.77;;;2.10;;
39370;SDS011;25099;51.946;4.838;2024-03-23T07:55:54;11.80;;;2.28;;
39370;SDS011;25099;51.946;4.838;2024-03-23T07:58:23;14.03;;;2.77;;
39370;SDS011;25099;51.946;4.838;2024-03-23T08:00:49;14.38;;;2.85;;
39370;SDS011;25099;51.946;4.838;2024-03-23T08:03:15;11.00;;;2.10;;
39370;SDS011;25099;51.946;4.838;2024-03-23T08:05:41;13.57;;;2.72;;
39370;SDS011;25099;51.946;4.838;2024-03-23T08:08:06;17.90;;;3.75;;
39370;SDS011;25099;51.946;4.838;2024-03-23T08:10:32;12.18;;;2.47;;
39370;SDS011;25099;51.946;4.838;2024-03-23T08:12:57;18.42;;;2.50;;
39370;SDS011;25099;51.946;4.838;2024-03-23T08:15:23;13.48;;;2.20;;
39370;SDS011;25099;51.946;4.838;2024-03-23T08:17:49;12.10;;;2.42;;
39370;SDS011;25099;51.946;4.838;2024-03-23T08:20:15;12.93;;;2.25;;
39370;SDS011;25099;51.946;4.838;2024-03-23T08:22:40;11.68;;;1.95;;
39370;SDS011;25099;51.946;4.838;2024-03-23T08:25:06;14.23;;;3.13;;
39370;SDS011;25099;51.946;4.838;2024-03-23T08:27:31;14.70;;;2.28;;
39370;SDS011;25099;51.946;4.838;2024-03-23T08:29:58;16.33;;;3.13;;
39370;SDS011;25099;51.946;4.838;2024-03-23T08:32:23;6.30;;;1.70;;
39370;SDS011;25099;51.946;4.838;2024-03-23T08:34:49;10.43;;;2.20;;
39370;SDS011;25099;51.946;4.838;2024-03-23T08:37:14;17.02;;;2.50;;
39370;SDS011;25099;51.946;4.838;2024-03-23T08:39:40;18.95;;;4.50;;
39370;SDS011;25099;51.946;4.838;2024-03-23T08:42:08;10.50;;;2.15;;
39370;SDS011;25099;51.946;4.838;2024-03-23T08:44:33;11.15;;;2.95;;
39370;SDS011;25099;51.946;4.838;2024-03-23T08:46:59;14.02;;;3.08;;
39370;SDS011;25099;51.946;4.838;2024-03-23T08:49:24;9.68;;;2.00;;
39370;SDS011;25099;51.946;4.838;2024-03-23T08:51:50;11.77;;;2.67;;
39370;SDS011;25099;51.946;4.838;2024-03-23T08:54:16;8.18;;;2.08;;
39370;SDS011;25099;51.946;4.838;2024-03-23T08:56:42;16.35;;;2.60;;
39370;SDS011;25099;51.946;4.838;2024-03-23T08:59:07;11.18;;;2.75;;
39370;SDS011;25099;51.946;4.838;2024-03-23T09:01:33;14.35;;;2.50;;
39370;SDS011;25099;51.946;4.838;2024-03-23T09:03:58;15.35;;;3.35;;
39370;SDS011;25099;51.946;4.838;2024-03-23T09:06:24;19.00;;;2.78;;
39370;SDS011;25099;51.946;4.838;2024-03-23T09:08:49;11.80;;;2.72;;
39370;SDS011;25099;51.946;4.838;2024-03-23T09:11:15;20.10;;;3.40;;
39370;SDS011;25099;51.946;4.838;2024-03-23T09:13:40;8.82;;;2.35;;
39370;SDS011;25099;51.946;4.838;2024-03-23T09:16:09;10.07;;;2.42;;
39370;SDS011;25099;51.946;4.838;2024-03-23T09:18:35;6.50;;;1.70;;
39370;SDS011;25099;51.946;4.838;2024-03-23T09:21:04;8.10;;;2.20;;
39370;SDS011;25099;51.946;4.838;2024-03-23T09:23:37;17.92;;;2.72;;
39370;SDS011;25099;51.946;4.838;2024-03-23T09:26:03;8.43;;;2.70;;
39370;SDS011;25099;51.946;4.838;2024-03-23T09:28:28;11.02;;;2.13;;
39370;SDS011;25099;51.946;4.838;2024-03-23T09:30:55;19.40;;;3.50;;
39370;SDS011;25099;51.946;4.838;2024-03-23T09:33:27;24.38;;;3.25;;
39370;SDS011;25099;51.946;4.838;2024-03-23T09:35:54;19.88;;;3.03;;
39370;SDS011;25099;51.946;4.838;2024-03-23T09:38:20;14.48;;;2.78;;
39370;SDS011;25099;51.946;4.838;2024-03-23T09:40:45;9.95;;;2.72;;
39370;SDS011;25099;51.946;4.838;2024-03-23T09:43:16;11.73;;;1.88;;
39370;SDS011;25099;51.946;4.838;2024-03-23T09:45:41;13.65;;;2.40;;
39370;SDS011;25099;51.946;4.838;2024-03-23T09:48:10;10.88;;;2.58;;
39370;SDS011;25099;51.946;4.838;2024-03-23T09:50:39;14.70;;;2.50;;
39370;SDS011;25099;51.946;4.838;2024-03-23T09:53:06;21.13;;;2.53;;
39370;SDS011;25099;51.946;4.838;2024-03-23T09:55:32;10.13;;;2.45;;
39370;SDS011;25099;51.946;4.838;2024-03-23T09:57:58;15.73;;;2.40;;
39370;SDS011;25099;51.946;4.838;2024-03-23T10:00:24;12.10;;;2.00;;
39370;SDS011;25099;51.946;4.838;2024-03-23T10:02:50;9.25;;;2.47;;
39370;SDS011;25099;51.946;4.838;2024-03-23T10:05:22;12.85;;;2.22;;
39370;SDS011;25099;51.946;4.838;2024-03-23T10:07:49;14.57;;;2.40;;
39370;SDS011;25099;51.946;4.838;2024-03-23T10:10:15;15.52;;;1.85;;
39370;SDS011;25099;51.946;4.838;2024-03-23T10:12:48;8.00;;;2.42;;
39370;SDS011;25099;51.946;4.838;2024-03-23T10:15:20;13.00;;;2.97;;
39370;SDS011;25099;51.946;4.838;2024-03-23T10:17:47;11.93;;;2.65;;
39370;SDS011;25099;51.946;4.838;2024-03-23T10:20:13;10.10;;;2.15;;
39370;SDS011;25099;51.946;4.838;2024-03-23T10:25:09;13.57;;;2.28;;
39370;SDS011;25099;51.946;4.838;2024-03-23T10:27:36;10.75;;;2.45;;
39370;SDS011;25099;51.946;4.838;2024-03-23T10:30:08;9.68;;;1.90;;
39370;SDS011;25099;51.946;4.838;2024-03-23T10:32:34;16.38;;;2.47;;
39370;SDS011;25099;51.946;4.838;2024-03-23T10:37:46;9.15;;;2.63;;
39370;SDS011;25099;51.946;4.838;2024-03-23T10:40:13;9.32;;;3.10;;
39370;SDS011;25099;51.946;4.838;2024-03-23T10:42:38;12.35;;;2.78;;
39370;SDS011;25099;51.946;4.838;2024-03-23T10:45:05;12.20;;;2.85;;
39370;SDS011;25099;51.946;4.838;2024-03-23T10:47:31;5.45;;;1.67;;
39370;SDS011;25099;51.946;4.838;2024-03-23T10:49:57;11.75;;;1.75;;
39370;SDS011;25099;51.946;4.838;2024-03-23T10:52:23;9.80;;;2.25;;
39370;SDS011;25099;51.946;4.838;2024-03-23T10:54:48;10.27;;;2.25;;
39370;SDS011;25099;51.946;4.838;2024-03-23T10:57:23;9.27;;;2.22;;
39370;SDS011;25099;51.946;4.838;2024-03-23T10:59:54;13.50;;;2.88;;
39370;SDS011;25099;51.946;4.838;2024-03-23T11:02:21;10.30;;;2.58;;
39370;SDS011;25099;51.946;4.838;2024-03-23T11:04:47;12.52;;;2.38;;
39370;SDS011;25099;51.946;4.838;2024-03-23T11:09:53;8.73;;;2.30;;
39370;SDS011;25099;51.946;4.838;2024-03-23T11:14:48;11.73;;;2.13;;
39370;SDS011;25099;51.946;4.838;2024-03-23T11:19:58;9.02;;;2.55;;
39370;SDS011;25099;51.946;4.838;2024-03-23T11:25:02;12.75;;;2.10;;
39370;SDS011;25099;51.946;4.838;2024-03-23T11:27:49;7.03;;;1.90;;
39370;SDS011;25099;51.946;4.838;2024-03-23T11:30:25;8.60;;;1.70;;
39370;SDS011;25099;51.946;4.838;2024-03-23T11:32:54;12.88;;;2.78;;
39370;SDS011;25099;51.946;4.838;2024-03-23T11:35:24;12.68;;;2.55;;
39370;SDS011;25099;51.946;4.838;2024-03-23T11:38:03;12.50;;;2.33;;
39370;SDS011;25099;51.946;4.838;2024-03-23T11:40:34;13.35;;;2.40;;
39370;SDS011;25099;51.946;4.838;2024-03-23T11:43:01;13.93;;;3.13;;
39370;SDS011;25099;51.946;4.838;2024-03-23T11:45:28;8.55;;;1.75;;
39370;SDS011;25099;51.946;4.838;2024-03-23T11:48:04;9.77;;;2.47;;
39370;SDS011;25099;51.946;4.838;2024-03-23T11:50:36;6.50;;;2.10;;
39370;SDS011;25099;51.946;4.838;2024-03-23T11:55:43;9.20;;;2.05;;
39370;SDS011;25099;51.946;4.838;2024-03-23T11:58:12;10.80;;;2.58;;
39370;SDS011;25099;51.946;4.838;2024-03-23T12:00:38;6.53;;;1.95;;
39370;SDS011;25099;51.946;4.838;2024-03-23T12:03:05;14.27;;;2.58;;
39370;SDS011;25099;51.946;4.838;2024-03-23T12:05:34;11.85;;;2.67;;
39370;SDS011;25099;51.946;4.838;2024-03-23T12:08:15;15.85;;;2.72;;
39370;SDS011;25099;51.946;4.838;2024-03-23T12:10:46;15.10;;;1.63;;
39370;SDS011;25099;51.946;4.838;2024-03-23T12:13:17;10.43;;;1.90;;
39370;SDS011;25099;51.946;4.838;2024-03-23T12:15:44;8.67;;;1.77;;
39370;SDS011;25099;51.946;4.838;2024-03-23T12:18:10;24.58;;;2.78;;
39370;SDS011;25099;51.946;4.838;2024-03-23T12:20:36;5.32;;;1.88;;
39370;SDS011;25099;51.946;4.838;2024-03-23T12:23:06;10.48;;;2.17;;
39370;SDS011;25099;51.946;4.838;2024-03-23T12:25:38;11.75;;;2.15;;
39370;SDS011;25099;51.946;4.838;2024-03-23T12:28:05;12.02;;;1.98;;
39370;SDS011;25099;51.946;4.838;2024-03-23T12:30:33;15.30;;;2.40;;
39370;SDS011;25099;51.946;4.838;2024-03-23T12:32:59;10.35;;;2.22;;
39370;SDS011;25099;51.946;4.838;2024-03-23T12:35:25;11.88;;;2.17;;
39370;SDS011;25099;51.946;4.838;2024-03-23T12:37:51;13.05;;;1.98;;
39370;SDS011;25099;51.946;4.838;2024-03-23T12:40:16;7.88;;;1.88;;
39370;SDS011;25099;51.946;4.838;2024-03-23T12:42:42;8.02;;;1.75;;
39370;SDS011;25099;51.946;4.838;2024-03-23T12:45:07;12.82;;;2.08;;
39370;SDS011;25099;51.946;4.838;2024-03-23T12:47:33;9.63;;;2.30;;
39370;SDS011;25099;51.946;4.838;2024-03-23T12:49:58;19.48;;;2.03;;
39370;SDS011;25099;51.946;4.838;2024-03-23T12:52:24;17.75;;;2.38;;
39370;SDS011;25099;51.946;4.838;2024-03-23T12:54:53;6.35;;;1.95;;
39370;SDS011;25099;51.946;4.838;2024-03-23T12:57:21;6.70;;;2.25;;
39370;SDS011;25099;51.946;4.838;2024-03-23T12:59:47;9.90;;;1.73;;
39370;SDS011;25099;51.946;4.838;2024-03-23T13:02:15;10.77;;;1.70;;
39370;SDS011;25099;51.946;4.838;2024-03-23T13:04:42;9.70;;;1.73;;
39370;SDS011;25099;51.946;4.838;2024-03-23T13:07:07;9.95;;;1.95;;
39370;SDS011;25099;51.946;4.838;2024-03-23T13:09:33;9.30;;;1.95;;
39370;SDS011;25099;51.946;4.838;2024-03-23T13:11:58;14.93;;;2.22;;
39370;SDS011;25099;51.946;4.838;2024-03-23T13:14:24;5.22;;;1.70;;
39370;SDS011;25099;51.946;4.838;2024-03-23T13:16:49;7.65;;;1.85;;
39370;SDS011;25099;51.946;4.838;2024-03-23T13:19:15;9.82;;;2.22;;
39370;SDS011;25099;51.946;4.838;2024-03-23T13:21:40;6.93;;;1.60;;
39370;SDS011;25099;51.946;4.838;2024-03-23T13:24:06;9.85;;;2.42;;
39370;SDS011;25099;51.946;4.838;2024-03-23T13:26:32;12.63;;;2.17;;
39370;SDS011;25099;51.946;4.838;2024-03-23T13:28:59;7.72;;;1.95;;
39370;SDS011;25099;51.946;4.838;2024-03-23T13:31:25;11.98;;;2.58;;
39370;SDS011;25099;51.946;4.838;2024-03-23T13:33:50;9.75;;;2.15;;
39370;SDS011;25099;51.946;4.838;2024-03-23T13:36:16;10.18;;;2.78;;
39370;SDS011;25099;51.946;4.838;2024-03-23T13:38:41;14.23;;;1.92;;
39370;SDS011;25099;51.946;4.838;2024-03-23T13:41:07;5.43;;;1.63;;
39370;SDS011;25099;51.946;4.838;2024-03-23T13:43:33;11.25;;;2.50;;
39370;SDS011;25099;51.946;4.838;2024-03-23T13:45:59;11.55;;;2.55;;
39370;SDS011;25099;51.946;4.838;2024-03-23T13:48:25;9.05;;;2.13;;
39370;SDS011;25099;51.946;4.838;2024-03-23T13:51:01;13.82;;;2.38;;
39370;SDS011;25099;51.946;4.838;2024-03-23T13:53:28;13.05;;;2.00;;
39370;SDS011;25099;51.946;4.838;2024-03-23T13:55:54;5.80;;;1.48;;
39370;SDS011;25099;51.946;4.838;2024-03-23T13:58:20;14.20;;;2.63;;
39370;SDS011;25099;51.946;4.838;2024-03-23T14:00:46;12.02;;;1.80;;
39370;SDS011;25099;51.946;4.838;2024-03-23T14:03:12;9.95;;;2.08;;
39370;SDS011;25099;51.946;4.838;2024-03-23T14:05:38;19.08;;;2.78;;
39370;SDS011;25099;51.946;4.838;2024-03-23T14:08:05;10.32;;;2.30;;
39370;SDS011;25099;51.946;4.838;2024-03-23T14:10:31;11.63;;;3.35;;
39370;SDS011;25099;51.946;4.838;2024-03-23T14:12:57;8.98;;;2.10;;
39370;SDS011;25099;51.946;4.838;2024-03-23T14:15:24;8.55;;;1.67;;
39370;SDS011;25099;51.946;4.838;2024-03-23T14:17:51;13.73;;;1.52;;
39370;SDS011;25099;51.946;4.838;2024-03-23T14:20:17;5.38;;;1.35;;
39370;SDS011;25099;51.946;4.838;2024-03-23T14:22:43;7.88;;;1.13;;
39370;SDS011;25099;51.946;4.838;2024-03-23T14:25:09;5.70;;;1.10;;
39370;SDS011;25099;51.946;4.838;2024-03-23T14:27:35;3.08;;;1.08;;
39370;SDS011;25099;51.946;4.838;2024-03-23T14:30:02;2.25;;;0.63;;
39370;SDS011;25099;51.946;4.838;2024-03-23T14:32:29;4.45;;;0.60;;
39370;SDS011;25099;51.946;4.838;2024-03-23T14:34:59;1.95;;;1.20;;
39370;SDS011;25099;51.946;4.838;2024-03-23T14:37:36;5.13;;;1.00;;
39370;SDS011;25099;51.946;4.838;2024-03-23T14:40:01;3.38;;;1.30;;
39370;SDS011;25099;51.946;4.838;2024-03-23T14:42:27;11.25;;;2.10;;
39370;SDS011;25099;51.946;4.838;2024-03-23T14:44:53;8.98;;;1.10;;
39370;SDS011;25099;51.946;4.838;2024-03-23T14:47:19;9.45;;;1.80;;
39370;SDS011;25099;51.946;4.838;2024-03-23T14:49:45;5.43;;;1.30;;
39370;SDS011;25099;51.946;4.838;2024-03-23T14:52:12;6.93;;;1.50;;
39370;SDS011;25099;51.946;4.838;2024-03-23T14:54:38;7.20;;;1.25;;
39370;SDS011;25099;51.946;4.838;2024-03-23T14:57:04;13.35;;;1.63;;
39370;SDS011;25099;51.946;4.838;2024-03-23T14:59:31;5.35;;;1.52;;
39370;SDS011;25099;51.946;4.838;2024-03-23T15:01:56;4.13;;;0.98;;
39370;SDS011;25099;51.946;4.838;2024-03-23T15:04:23;11.43;;;1.85;;
39370;SDS011;25099;51.946;4.838;2024-03-23T15:06:48;13.00;;;1.83;;
39370;SDS011;25099;51.946;4.838;2024-03-23T15:09:15;10.25;;;1.80;;
39370;SDS011;25099;51.946;4.838;2024-03-23T15:11:40;11.05;;;1.85;;
39370;SDS011;25099;51.946;4.838;2024-03-23T15:14:06;11.23;;;1.55;;
39370;SDS011;25099;51.946;4.838;2024-03-23T15:16:33;6.82;;;1.80;;
39370;SDS011;25099;51.946;4.838;2024-03-23T15:18:58;16.05;;;2.30;;
39370;SDS011;25099;51.946;4.838;2024-03-23T15:21:24;6.57;;;1.55;;
39370;SDS011;25099;51.946;4.838;2024-03-23T15:23:49;13.82;;;2.15;;
39370;SDS011;25099;51.946;4.838;2024-03-23T15:26:15;7.63;;;1.90;;
39370;SDS011;25099;51.946;4.838;2024-03-23T15:28:41;9.13;;;1.40;;
39370;SDS011;25099;51.946;4.838;2024-03-23T15:31:27;6.10;;;1.60;;
39370;SDS011;25099;51.946;4.838;2024-03-23T15:33:52;8.23;;;1.35;;
39370;SDS011;25099;51.946;4.838;2024-03-23T15:36:18;5.40;;;1.30;;
39370;SDS011;25099;51.946;4.838;2024-03-23T15:38:44;2.75;;;0.88;;
39370;SDS011;25099;51.946;4.838;2024-03-23T15:41:10;2.95;;;0.80;;
39370;SDS011;25099;51.946;4.838;2024-03-23T15:43:35;2.38;;;0.75;;
39370;SDS011;25099;51.946;4.838;2024-03-23T15:46:02;6.60;;;0.90;;
39370;SDS011;25099;51.946;4.838;2024-03-23T15:48:31;2.35;;;0.68;;